sensor_id;sensor_type;location;lat;lon;timestamp;pressure;altitude;pressure_sealevel;temperature;humidity
16777;BME280;8505;49.456;8.164;2023-04-30T00:00:17;100186.34;;;11.95;72.29
16777;BME280;8505;49.456;8.164;2023-04-30T00:02:45;100184.81;;;12.00;71.88
16777;BME280;8505;49.456;8.164;2023-04-30T00:05:14;100185.22;;;12.28;70.95
16777;BME280;8505;49.456;8.164;2023-04-30T00:07:42;100183.25;;;12.22;71.33
16777;BME280;8505;49.456;8.164;2023-04-30T00:10:10;100189.78;;;12.11;71.38
16777;BME280;8505;49.456;8.164;2023-04-30T00:12:38;100181.81;;;12.11;71.38
16777;BME280;8505;49.456;8.164;2023-04-30T00:15:06;100192.31;;;11.97;72.10
16777;BME280;8505;49.456;8.164;2023-04-30T00:17:34;100187.13;;;12.11;71.58
16777;BME280;8505;49.456;8.164;2023-04-30T00:20:03;100193.47;;;12.02;71.69
16777;BME280;8505;49.456;8.164;2023-04-30T00:22:32;100194.63;;;11.92;72.00
16777;BME280;8505;49.456;8.164;2023-04-30T00:25:00;100195.13;;;11.71;72.85
16777;BME280;8505;49.456;8.164;2023-04-30T00:27:27;100199.44;;;11.96;71.82
16777;BME280;8505;49.456;8.164;2023-04-30T00:29:56;100191.47;;;11.96;72.15
16777;BME280;8505;49.456;8.164;2023-04-30T00:32:24;100189.94;;;12.10;71.68
16777;BME280;8505;49.456;8.164;2023-04-30T00:34:52;100187.53;;;11.84;72.32
16777;BME280;8505;49.456;8.164;2023-04-30T00:37:20;100183.47;;;12.04;71.92
16777;BME280;8505;49.456;8.164;2023-04-30T00:39:49;100182.38;;;11.83;72.85
16777;BME280;8505;49.456;8.164;2023-04-30T00:42:17;100182.09;;;12.25;71.56
16777;BME280;8505;49.456;8.164;2023-04-30T00:44:44;100182.13;;;12.16;71.93
16777;BME280;8505;49.456;8.164;2023-04-30T00:47:12;100180.97;;;12.19;71.96
16777;BME280;8505;49.456;8.164;2023-04-30T00:49:40;100187.63;;;12.15;72.57
16777;BME280;8505;49.456;8.164;2023-04-30T00:52:07;100184.34;;;12.52;71.13
16777;BME280;8505;49.456;8.164;2023-04-30T00:54:36;100184.66;;;12.49;71.62
16777;BME280;8505;49.456;8.164;2023-04-30T00:57:06;100185.66;;;12.48;71.41
16777;BME280;8505;49.456;8.164;2023-04-30T00:59:36;100186.97;;;12.05;72.79
16777;BME280;8505;49.456;8.164;2023-04-30T01:02:05;100185.50;;;11.86;73.48
16777;BME280;8505;49.456;8.164;2023-04-30T01:04:33;100179.50;;;12.08;73.22
16777;BME280;8505;49.456;8.164;2023-04-30T01:07:02;100182.72;;;12.35;72.39
16777;BME280;8505;49.456;8.164;2023-04-30T01:09:29;100187.03;;;12.44;72.17
16777;BME280;8505;49.456;8.164;2023-04-30T01:12:07;100189.06;;;12.26;72.86
16777;BME280;8505;49.456;8.164;2023-04-30T01:14:49;100187.69;;;12.38;72.61
16777;BME280;8505;49.456;8.164;2023-04-30T01:17:24;100182.19;;;12.00;73.57
16777;BME280;8505;49.456;8.164;2023-04-30T01:19:55;100179.19;;;12.03;73.54
16777;BME280;8505;49.456;8.164;2023-04-30T01:22:34;100183.41;;;12.29;72.68
16777;BME280;8505;49.456;8.164;2023-04-30T01:25:24;100177.84;;;12.15;73.09
16777;BME280;8505;49.456;8.164;2023-04-30T01:28:01;100171.97;;;12.28;72.49
16777;BME280;8505;49.456;8.164;2023-04-30T01:30:30;100174.56;;;11.89;73.99
16777;BME280;8505;49.456;8.164;2023-04-30T01:32:58;100173.44;;;11.75;74.31
16777;BME280;8505;49.456;8.164;2023-04-30T01:35:38;100174.06;;;11.86;73.83
16777;BME280;8505;49.456;8.164;2023-04-30T01:38:14;100175.94;;;11.77;74.19
16777;BME280;8505;49.456;8.164;2023-04-30T01:40:51;100177.22;;;11.81;74.44
16777;BME280;8505;49.456;8.164;2023-04-30T01:43:28;100182.53;;;11.65;75.56
16777;BME280;8505;49.456;8.164;2023-04-30T01:46:08;100172.59;;;11.59;75.25
16777;BME280;8505;49.456;8.164;2023-04-30T01:48:42;100166.31;;;11.60;75.85
16777;BME280;8505;49.456;8.164;2023-04-30T01:51:18;100167.13;;;11.44;76.46
16777;BME280;8505;49.456;8.164;2023-04-30T01:53:46;100182.72;;;11.47;76.31
16777;BME280;8505;49.456;8.164;2023-04-30T01:56:17;100183.84;;;11.61;76.11
16777;BME280;8505;49.456;8.164;2023-04-30T01:58:51;100183.38;;;11.41;76.92
16777;BME280;8505;49.456;8.164;2023-04-30T02:01:26;100182.88;;;11.70;75.79
16777;BME280;8505;49.456;8.164;2023-04-30T02:03:55;100183.22;;;11.59;76.18
16777;BME280;8505;49.456;8.164;2023-04-30T02:06:23;100184.19;;;11.58;76.13
16777;BME280;8505;49.456;8.164;2023-04-30T02:08:53;100191.66;;;11.54;76.35
16777;BME280;8505;49.456;8.164;2023-04-30T02:11:22;100186.69;;;11.59;76.25
16777;BME280;8505;49.456;8.164;2023-04-30T02:13:52;100188.50;;;11.26;77.46
16777;BME280;8505;49.456;8.164;2023-04-30T02:16:19;100186.84;;;11.33;77.31
16777;BME280;8505;49.456;8.164;2023-04-30T02:18:47;100179.53;;;11.68;76.00
16777;BME280;8505;49.456;8.164;2023-04-30T02:21:15;100180.22;;;11.70;76.07
16777;BME280;8505;49.456;8.164;2023-04-30T02:23:43;100181.88;;;11.79;75.33
16777;BME280;8505;49.456;8.164;2023-04-30T02:26:11;100183.53;;;11.56;75.81
16777;BME280;8505;49.456;8.164;2023-04-30T02:28:38;100176.06;;;11.43;76.75
16777;BME280;8505;49.456;8.164;2023-04-30T02:31:10;100180.72;;;11.65;76.30
16777;BME280;8505;49.456;8.164;2023-04-30T02:33:38;100180.06;;;11.39;77.01
16777;BME280;8505;49.456;8.164;2023-04-30T02:36:05;100180.72;;;11.49;76.69
16777;BME280;8505;49.456;8.164;2023-04-30T02:38:33;100181.22;;;11.45;76.85
16777;BME280;8505;49.456;8.164;2023-04-30T02:41:01;100177.41;;;11.39;77.33
16777;BME280;8505;49.456;8.164;2023-04-30T02:43:29;100172.13;;;11.47;76.71
16777;BME280;8505;49.456;8.164;2023-04-30T02:45:57;100186.69;;;11.35;77.18
16777;BME280;8505;49.456;8.164;2023-04-30T02:48:26;100188.53;;;11.34;77.60
16777;BME280;8505;49.456;8.164;2023-04-30T02:50:54;100174.25;;;11.52;76.90
16777;BME280;8505;49.456;8.164;2023-04-30T02:53:22;100183.22;;;11.34;77.65
16777;BME280;8505;49.456;8.164;2023-04-30T02:55:49;100177.56;;;11.62;76.54
16777;BME280;8505;49.456;8.164;2023-04-30T02:58:17;100175.25;;;11.34;77.10
16777;BME280;8505;49.456;8.164;2023-04-30T03:00:45;100185.69;;;11.36;76.83
16777;BME280;8505;49.456;8.164;2023-04-30T03:03:12;100182.22;;;11.44;76.61
16777;BME280;8505;49.456;8.164;2023-04-30T03:05:42;100185.53;;;11.38;77.35
16777;BME280;8505;49.456;8.164;2023-04-30T03:08:09;100181.72;;;11.56;76.59
16777;BME280;8505;49.456;8.164;2023-04-30T03:10:38;100186.19;;;11.56;76.57
16777;BME280;8505;49.456;8.164;2023-04-30T03:13:06;100180.22;;;11.46;76.90
16777;BME280;8505;49.456;8.164;2023-04-30T03:15:34;100177.25;;;11.41;76.79
16777;BME280;8505;49.456;8.164;2023-04-30T03:18:01;100179.88;;;11.65;76.40
16777;BME280;8505;49.456;8.164;2023-04-30T03:20:29;100179.06;;;11.40;76.83
16777;BME280;8505;49.456;8.164;2023-04-30T03:22:58;100172.25;;;11.38;77.41
16777;BME280;8505;49.456;8.164;2023-04-30T03:25:26;100176.38;;;11.24;77.64
16777;BME280;8505;49.456;8.164;2023-04-30T03:27:54;100168.13;;;11.51;76.98
16777;BME280;8505;49.456;8.164;2023-04-30T03:30:21;100167.44;;;11.49;76.95
16777;BME280;8505;49.456;8.164;2023-04-30T03:32:49;100181.72;;;11.40;77.53
16777;BME280;8505;49.456;8.164;2023-04-30T03:35:17;100168.13;;;11.27;78.18
16777;BME280;8505;49.456;8.164;2023-04-30T03:37:45;100172.91;;;11.23;78.08
16777;BME280;8505;49.456;8.164;2023-04-30T03:40:14;100173.25;;;11.12;78.86
16777;BME280;8505;49.456;8.164;2023-04-30T03:42:42;100175.41;;;11.09;78.79
16777;BME280;8505;49.456;8.164;2023-04-30T03:45:10;100171.72;;;10.93;79.40
16777;BME280;8505;49.456;8.164;2023-04-30T03:47:37;100168.09;;;11.19;78.78
16777;BME280;8505;49.456;8.164;2023-04-30T03:50:06;100171.56;;;11.11;78.77
16777;BME280;8505;49.456;8.164;2023-04-30T03:52:34;100161.50;;;11.31;78.50
16777;BME280;8505;49.456;8.164;2023-04-30T03:55:04;100171.28;;;11.39;77.96
16777;BME280;8505;49.456;8.164;2023-04-30T03:57:34;100164.63;;;11.18;78.95
16777;BME280;8505;49.456;8.164;2023-04-30T04:00:02;100166.47;;;11.34;78.57
16777;BME280;8505;49.456;8.164;2023-04-30T04:02:33;100176.22;;;11.09;79.01
16777;BME280;8505;49.456;8.164;2023-04-30T04:05:02;100170.09;;;11.09;79.48
16777;BME280;8505;49.456;8.164;2023-04-30T04:07:30;100174.59;;;11.16;78.99
16777;BME280;8505;49.456;8.164;2023-04-30T04:09:57;100178.41;;;11.22;79.19
16777;BME280;8505;49.456;8.164;2023-04-30T04:12:25;100178.72;;;11.19;79.03
16777;BME280;8505;49.456;8.164;2023-04-30T04:14:54;100166.78;;;11.31;78.56
16777;BME280;8505;49.456;8.164;2023-04-30T04:17:22;100176.41;;;11.16;78.93
16777;BME280;8505;49.456;8.164;2023-04-30T04:19:50;100179.88;;;11.16;79.77
16777;BME280;8505;49.456;8.164;2023-04-30T04:22:18;100178.56;;;11.28;79.02
16777;BME280;8505;49.456;8.164;2023-04-30T04:24:45;100181.84;;;10.98;80.04
16777;BME280;8505;49.456;8.164;2023-04-30T04:27:14;100178.19;;;10.99;79.79
16777;BME280;8505;49.456;8.164;2023-04-30T04:29:42;100195.31;;;10.54;81.93
16777;BME280;8505;49.456;8.164;2023-04-30T04:32:11;100187.16;;;10.98;80.03
16777;BME280;8505;49.456;8.164;2023-04-30T04:34:40;100183.97;;;10.78;80.78
16777;BME280;8505;49.456;8.164;2023-04-30T04:37:08;100180.38;;;11.20;79.37
16777;BME280;8505;49.456;8.164;2023-04-30T04:39:36;100184.19;;;11.09;79.22
16777;BME280;8505;49.456;8.164;2023-04-30T04:42:03;100186.13;;;10.91;80.10
16777;BME280;8505;49.456;8.164;2023-04-30T04:44:31;100189.31;;;11.19;79.02
16777;BME280;8505;49.456;8.164;2023-04-30T04:46:59;100194.31;;;11.38;78.22
16777;BME280;8505;49.456;8.164;2023-04-30T04:49:30;100183.03;;;11.36;78.28
16777;BME280;8505;49.456;8.164;2023-04-30T04:51:57;100188.16;;;11.38;77.92
16777;BME280;8505;49.456;8.164;2023-04-30T04:54:25;100187.84;;;11.49;77.88
16777;BME280;8505;49.456;8.164;2023-04-30T04:56:53;100186.53;;;11.53;77.95
16777;BME280;8505;49.456;8.164;2023-04-30T04:59:21;100192.31;;;11.16;78.95
16777;BME280;8505;49.456;8.164;2023-04-30T05:01:48;100194.44;;;11.12;79.11
16777;BME280;8505;49.456;8.164;2023-04-30T05:04:16;100192.75;;;10.95;79.89
16777;BME280;8505;49.456;8.164;2023-04-30T05:06:45;100197.03;;;10.88;79.95
16777;BME280;8505;49.456;8.164;2023-04-30T05:09:13;100196.44;;;11.10;79.51
16777;BME280;8505;49.456;8.164;2023-04-30T05:11:41;100195.47;;;11.27;79.86
16777;BME280;8505;49.456;8.164;2023-04-30T05:14:10;100191.13;;;11.18;79.50
16777;BME280;8505;49.456;8.164;2023-04-30T05:16:37;100191.97;;;11.27;78.30
16777;BME280;8505;49.456;8.164;2023-04-30T05:19:05;100194.13;;;11.31;78.80
16777;BME280;8505;49.456;8.164;2023-04-30T05:21:35;100203.22;;;11.05;80.10
16777;BME280;8505;49.456;8.164;2023-04-30T05:24:04;100202.41;;;11.04;80.08
16777;BME280;8505;49.456;8.164;2023-04-30T05:26:32;100201.56;;;11.12;79.41
16777;BME280;8505;49.456;8.164;2023-04-30T05:29:00;100199.25;;;11.25;79.09
16777;BME280;8505;49.456;8.164;2023-04-30T05:31:28;100203.56;;;11.18;79.11
16777;BME280;8505;49.456;8.164;2023-04-30T05:33:57;100199.09;;;11.43;78.62
16777;BME280;8505;49.456;8.164;2023-04-30T05:36:25;100201.78;;;11.59;78.35
16777;BME280;8505;49.456;8.164;2023-04-30T05:38:54;100205.06;;;11.61;77.05
16777;BME280;8505;49.456;8.164;2023-04-30T05:41:23;100201.78;;;11.75;77.78
16777;BME280;8505;49.456;8.164;2023-04-30T05:43:50;100200.44;;;11.79;77.88
16777;BME280;8505;49.456;8.164;2023-04-30T05:46:18;100202.94;;;11.89;77.14
16777;BME280;8505;49.456;8.164;2023-04-30T05:48:46;100201.44;;;11.86;76.70
16777;BME280;8505;49.456;8.164;2023-04-30T05:51:14;100202.09;;;11.80;76.13
16777;BME280;8505;49.456;8.164;2023-04-30T05:53:42;100199.78;;;11.69;77.39
16777;BME280;8505;49.456;8.164;2023-04-30T05:56:09;100201.44;;;11.46;78.80
16777;BME280;8505;49.456;8.164;2023-04-30T05:58:39;100207.75;;;11.77;77.69
16777;BME280;8505;49.456;8.164;2023-04-30T06:01:07;100205.75;;;11.47;78.57
16777;BME280;8505;49.456;8.164;2023-04-30T06:03:36;100203.59;;;11.83;77.45
16777;BME280;8505;49.456;8.164;2023-04-30T06:06:04;100206.72;;;11.62;77.60
16777;BME280;8505;49.456;8.164;2023-04-30T06:08:32;100214.03;;;11.68;77.34
16777;BME280;8505;49.456;8.164;2023-04-30T06:10:59;100206.69;;;12.10;76.14
16777;BME280;8505;49.456;8.164;2023-04-30T06:13:30;100200.78;;;11.76;76.85
16777;BME280;8505;49.456;8.164;2023-04-30T06:15:59;100201.44;;;11.86;76.37
16777;BME280;8505;49.456;8.164;2023-04-30T06:18:27;100199.28;;;11.57;77.23
16777;BME280;8505;49.456;8.164;2023-04-30T06:20:54;100205.06;;;12.01;76.60
16777;BME280;8505;49.456;8.164;2023-04-30T06:23:22;100206.53;;;12.12;76.22
16777;BME280;8505;49.456;8.164;2023-04-30T06:25:50;100200.44;;;11.95;76.19
16777;BME280;8505;49.456;8.164;2023-04-30T06:28:18;100211.22;;;12.02;75.99
16777;BME280;8505;49.456;8.164;2023-04-30T06:30:46;100199.34;;;12.29;74.89
16777;BME280;8505;49.456;8.164;2023-04-30T06:33:15;100208.56;;;12.57;74.06
16777;BME280;8505;49.456;8.164;2023-04-30T06:35:43;100203.03;;;12.28;74.04
16777;BME280;8505;49.456;8.164;2023-04-30T06:38:10;100206.75;;;12.49;73.20
16777;BME280;8505;49.456;8.164;2023-04-30T06:40:38;100211.66;;;12.69;73.22
16777;BME280;8505;49.456;8.164;2023-04-30T06:43:06;100206.63;;;12.35;74.67
16777;BME280;8505;49.456;8.164;2023-04-30T06:45:34;100212.59;;;12.45;73.17
16777;BME280;8505;49.456;8.164;2023-04-30T06:48:02;100213.09;;;12.79;72.72
16777;BME280;8505;49.456;8.164;2023-04-30T06:50:31;100219.03;;;12.50;73.45
16777;BME280;8505;49.456;8.164;2023-04-30T06:52:58;100213.91;;;12.80;73.12
16777;BME280;8505;49.456;8.164;2023-04-30T06:55:26;100216.56;;;12.80;72.40
16777;BME280;8505;49.456;8.164;2023-04-30T06:57:54;100213.34;;;12.92;72.58
16777;BME280;8505;49.456;8.164;2023-04-30T07:00:23;100213.03;;;12.56;73.92
16777;BME280;8505;49.456;8.164;2023-04-30T07:02:51;100221.63;;;12.67;73.22
16777;BME280;8505;49.456;8.164;2023-04-30T07:05:19;100214.09;;;12.78;72.82
16777;BME280;8505;49.456;8.164;2023-04-30T07:07:48;100212.06;;;13.11;71.85
16777;BME280;8505;49.456;8.164;2023-04-30T07:10:16;100212.13;;;13.34;71.03
16777;BME280;8505;49.456;8.164;2023-04-30T07:12:44;100220.47;;;13.31;70.56
16777;BME280;8505;49.456;8.164;2023-04-30T07:15:12;100208.69;;;13.86;69.00
16777;BME280;8505;49.456;8.164;2023-04-30T07:17:39;100206.06;;;14.15;67.92
16777;BME280;8505;49.456;8.164;2023-04-30T07:20:09;100203.09;;;13.95;68.35
16777;BME280;8505;49.456;8.164;2023-04-30T07:22:37;100201.00;;;14.05;68.00
16777;BME280;8505;49.456;8.164;2023-04-30T07:25:07;100197.81;;;14.10;67.24
16777;BME280;8505;49.456;8.164;2023-04-30T07:27:35;100204.81;;;14.55;65.98
16777;BME280;8505;49.456;8.164;2023-04-30T07:30:04;100198.00;;;14.23;67.39
16777;BME280;8505;49.456;8.164;2023-04-30T07:32:33;100209.66;;;14.51;66.09
16777;BME280;8505;49.456;8.164;2023-04-30T07:35:00;100206.31;;;13.91;67.03
16777;BME280;8505;49.456;8.164;2023-04-30T07:37:28;100206.06;;;14.00;67.16
16777;BME280;8505;49.456;8.164;2023-04-30T07:39:59;100205.00;;;14.39;66.90
16777;BME280;8505;49.456;8.164;2023-04-30T07:42:28;100205.91;;;14.31;66.79
16777;BME280;8505;49.456;8.164;2023-04-30T07:44:56;100204.03;;;14.76;65.47
16777;BME280;8505;49.456;8.164;2023-04-30T07:47:24;100202.03;;;14.34;66.61
16777;BME280;8505;49.456;8.164;2023-04-30T07:49:52;100201.97;;;14.42;66.22
16777;BME280;8505;49.456;8.164;2023-04-30T07:52:20;100203.94;;;14.84;64.92
16777;BME280;8505;49.456;8.164;2023-04-30T07:54:48;100195.06;;;14.98;64.44
16777;BME280;8505;49.456;8.164;2023-04-30T07:57:15;100198.97;;;15.38;63.55
16777;BME280;8505;49.456;8.164;2023-04-30T07:59:45;100195.91;;;15.62;61.89
16777;BME280;8505;49.456;8.164;2023-04-30T08:02:15;100198.06;;;16.01;61.32
16777;BME280;8505;49.456;8.164;2023-04-30T08:04:43;100201.44;;;15.82;61.17
16777;BME280;8505;49.456;8.164;2023-04-30T08:07:12;100193.56;;;16.02;59.55
16777;BME280;8505;49.456;8.164;2023-04-30T08:09:41;100203.59;;;15.51;62.08
16777;BME280;8505;49.456;8.164;2023-04-30T08:12:08;100198.03;;;16.23;60.02
16777;BME280;8505;49.456;8.164;2023-04-30T08:14:36;100193.38;;;16.38;57.72
16777;BME280;8505;49.456;8.164;2023-04-30T08:17:05;100197.31;;;16.48;57.19
16777;BME280;8505;49.456;8.164;2023-04-30T08:19:33;100195.06;;;16.45;58.17
16777;BME280;8505;49.456;8.164;2023-04-30T08:22:01;100192.34;;;16.80;56.74
16777;BME280;8505;49.456;8.164;2023-04-30T08:24:29;100187.16;;;18.05;53.97
16777;BME280;8505;49.456;8.164;2023-04-30T08:26:56;100192.88;;;18.28;52.00
16777;BME280;8505;49.456;8.164;2023-04-30T08:29:25;100184.38;;;18.44;52.41
16777;BME280;8505;49.456;8.164;2023-04-30T08:31:54;100186.09;;;18.26;52.25
16777;BME280;8505;49.456;8.164;2023-04-30T08:34:23;100188.94;;;18.37;50.51
16777;BME280;8505;49.456;8.164;2023-04-30T08:36:52;100191.50;;;17.93;50.89
16777;BME280;8505;49.456;8.164;2023-04-30T08:39:19;100192.97;;;17.75;50.85
16777;BME280;8505;49.456;8.164;2023-04-30T08:41:53;100183.59;;;17.19;52.42
16777;BME280;8505;49.456;8.164;2023-04-30T08:44:22;100193.03;;;16.95;53.41
16777;BME280;8505;49.456;8.164;2023-04-30T08:46:52;100184.25;;;17.21;52.78
16777;BME280;8505;49.456;8.164;2023-04-30T08:49:21;100175.81;;;17.37;53.14
16777;BME280;8505;49.456;8.164;2023-04-30T08:51:51;100183.03;;;17.50;53.03
16777;BME280;8505;49.456;8.164;2023-04-30T08:54:20;100190.59;;;17.13;53.62
16777;BME280;8505;49.456;8.164;2023-04-30T08:56:50;100176.69;;;17.84;51.62
16777;BME280;8505;49.456;8.164;2023-04-30T08:59:18;100175.03;;;17.83;52.04
16777;BME280;8505;49.456;8.164;2023-04-30T09:01:46;100172.75;;;17.86;51.04
16777;BME280;8505;49.456;8.164;2023-04-30T09:04:16;100174.22;;;17.75;51.39
16777;BME280;8505;49.456;8.164;2023-04-30T09:06:44;100172.91;;;18.04;50.27
16777;BME280;8505;49.456;8.164;2023-04-30T09:09:14;100175.44;;;17.66;51.01
16777;BME280;8505;49.456;8.164;2023-04-30T09:11:42;100176.09;;;18.46;49.35
16777;BME280;8505;49.456;8.164;2023-04-30T09:14:10;100164.91;;;18.69;49.06
16777;BME280;8505;49.456;8.164;2023-04-30T09:16:46;100169.84;;;17.94;47.68
16777;BME280;8505;49.456;8.164;2023-04-30T09:19:24;100173.13;;;17.30;44.05
16777;BME280;8505;49.456;8.164;2023-04-30T09:21:52;100164.91;;;17.52;43.82
16777;BME280;8505;49.456;8.164;2023-04-30T09:24:22;100167.47;;;18.44;41.12
16777;BME280;8505;49.456;8.164;2023-04-30T09:26:50;100158.84;;;18.22;41.88
16777;BME280;8505;49.456;8.164;2023-04-30T09:29:18;100175.44;;;17.66;43.52
16777;BME280;8505;49.456;8.164;2023-04-30T09:31:46;100175.19;;;17.35;44.67
16777;BME280;8505;49.456;8.164;2023-04-30T09:34:14;100176.59;;;17.18;44.80
16777;BME280;8505;49.456;8.164;2023-04-30T09:36:51;100177.47;;;17.45;44.21
16777;BME280;8505;49.456;8.164;2023-04-30T09:39:21;100166.72;;;17.18;43.73
16777;BME280;8505;49.456;8.164;2023-04-30T09:41:50;100161.81;;;18.01;43.16
16777;BME280;8505;49.456;8.164;2023-04-30T09:44:36;100167.09;;;18.27;42.69
16777;BME280;8505;49.456;8.164;2023-04-30T09:47:09;100157.66;;;18.76;42.37
16777;BME280;8505;49.456;8.164;2023-04-30T09:49:40;100156.63;;;18.70;41.90
16777;BME280;8505;49.456;8.164;2023-04-30T09:52:09;100159.44;;;18.37;43.14
16777;BME280;8505;49.456;8.164;2023-04-30T09:54:39;100170.69;;;17.68;44.65
16777;BME280;8505;49.456;8.164;2023-04-30T09:57:09;100166.13;;;17.29;45.70
16777;BME280;8505;49.456;8.164;2023-04-30T09:59:42;100166.72;;;17.18;46.22
16777;BME280;8505;49.456;8.164;2023-04-30T10:02:12;100176.84;;;17.49;46.23
16777;BME280;8505;49.456;8.164;2023-04-30T10:04:42;100172.72;;;17.60;46.11
16777;BME280;8505;49.456;8.164;2023-04-30T10:07:14;100170.00;;;17.14;46.27
16777;BME280;8505;49.456;8.164;2023-04-30T10:09:49;100174.97;;;17.23;46.50
16777;BME280;8505;49.456;8.164;2023-04-30T10:12:21;100163.03;;;17.92;45.00
16777;BME280;8505;49.456;8.164;2023-04-30T10:14:54;100159.09;;;18.14;44.59
16777;BME280;8505;49.456;8.164;2023-04-30T10:17:26;100156.81;;;18.11;44.67
16777;BME280;8505;49.456;8.164;2023-04-30T10:19:59;100154.75;;;18.77;43.99
16777;BME280;8505;49.456;8.164;2023-04-30T10:22:28;100160.78;;;17.89;44.77
16777;BME280;8505;49.456;8.164;2023-04-30T10:24:58;100157.25;;;17.35;45.16
16777;BME280;8505;49.456;8.164;2023-04-30T10:27:28;100158.94;;;17.50;45.27
16777;BME280;8505;49.456;8.164;2023-04-30T10:29:58;100152.31;;;17.19;46.66
16777;BME280;8505;49.456;8.164;2023-04-30T10:32:32;100145.28;;;17.12;46.20
16777;BME280;8505;49.456;8.164;2023-04-30T10:35:09;100152.75;;;17.56;45.85
16777;BME280;8505;49.456;8.164;2023-04-30T10:37:42;100144.53;;;17.77;45.73
16777;BME280;8505;49.456;8.164;2023-04-30T10:40:14;100144.06;;;17.40;44.82
16777;BME280;8505;49.456;8.164;2023-04-30T10:42:44;100141.25;;;17.62;44.64
16777;BME280;8505;49.456;8.164;2023-04-30T10:45:14;100138.13;;;17.85;43.49
16777;BME280;8505;49.456;8.164;2023-04-30T10:47:43;100130.72;;;17.73;43.80
16777;BME280;8505;49.456;8.164;2023-04-30T10:50:12;100133.00;;;17.63;44.62
16777;BME280;8505;49.456;8.164;2023-04-30T10:52:41;100128.84;;;17.74;43.63
16777;BME280;8505;49.456;8.164;2023-04-30T10:55:10;100130.09;;;17.71;44.10
16777;BME280;8505;49.456;8.164;2023-04-30T10:57:42;100126.81;;;17.83;43.61
16777;BME280;8505;49.456;8.164;2023-04-30T11:00:18;100120.84;;;17.61;43.98
16777;BME280;8505;49.456;8.164;2023-04-30T11:02:46;100118.06;;;18.13;42.75
16777;BME280;8505;49.456;8.164;2023-04-30T11:05:16;100118.31;;;17.99;42.82
16777;BME280;8505;49.456;8.164;2023-04-30T11:07:48;100108.44;;;17.79;43.39
16777;BME280;8505;49.456;8.164;2023-04-30T11:10:20;100113.53;;;18.07;43.74
16777;BME280;8505;49.456;8.164;2023-04-30T11:12:51;100116.47;;;18.57;42.33
16777;BME280;8505;49.456;8.164;2023-04-30T11:15:20;100117.91;;;18.53;43.04
16777;BME280;8505;49.456;8.164;2023-04-30T11:17:48;100122.34;;;18.21;43.53
16777;BME280;8505;49.456;8.164;2023-04-30T11:20:19;100112.72;;;18.65;42.28
16777;BME280;8505;49.456;8.164;2023-04-30T11:22:47;100113.47;;;18.27;41.89
16777;BME280;8505;49.456;8.164;2023-04-30T11:25:18;100110.31;;;17.46;43.08
16777;BME280;8505;49.456;8.164;2023-04-30T11:27:46;100108.94;;;18.21;41.32
16777;BME280;8505;49.456;8.164;2023-04-30T11:30:16;100102.31;;;18.30;41.71
16777;BME280;8505;49.456;8.164;2023-04-30T11:32:46;100101.78;;;18.08;40.91
16777;BME280;8505;49.456;8.164;2023-04-30T11:35:16;100104.69;;;18.58;41.21
16777;BME280;8505;49.456;8.164;2023-04-30T11:37:44;100101.81;;;18.59;40.63
16777;BME280;8505;49.456;8.164;2023-04-30T11:40:18;100095.41;;;18.61;41.04
16777;BME280;8505;49.456;8.164;2023-04-30T11:42:46;100095.53;;;18.72;41.09
16777;BME280;8505;49.456;8.164;2023-04-30T11:45:16;100095.94;;;18.76;40.99
16777;BME280;8505;49.456;8.164;2023-04-30T11:47:47;100093.81;;;17.89;42.66
16777;BME280;8505;49.456;8.164;2023-04-30T11:50:17;100091.91;;;18.60;41.22
16777;BME280;8505;49.456;8.164;2023-04-30T11:52:51;100090.13;;;18.79;40.68
16777;BME280;8505;49.456;8.164;2023-04-30T11:55:20;100083.75;;;18.29;41.96
16777;BME280;8505;49.456;8.164;2023-04-30T11:57:50;100084.72;;;18.47;41.00
16777;BME280;8505;49.456;8.164;2023-04-30T12:00:24;100084.72;;;18.47;41.30
16777;BME280;8505;49.456;8.164;2023-04-30T12:02:53;100081.84;;;18.87;41.05
16777;BME280;8505;49.456;8.164;2023-04-30T12:05:24;100087.19;;;19.18;40.70
16777;BME280;8505;49.456;8.164;2023-04-30T12:07:54;100078.88;;;19.20;39.56
16777;BME280;8505;49.456;8.164;2023-04-30T12:10:22;100078.44;;;18.98;40.45
16777;BME280;8505;49.456;8.164;2023-04-30T12:12:51;100075.69;;;18.80;41.10
16777;BME280;8505;49.456;8.164;2023-04-30T12:15:23;100068.34;;;19.25;41.04
16777;BME280;8505;49.456;8.164;2023-04-30T12:17:53;100066.69;;;19.49;39.85
16777;BME280;8505;49.456;8.164;2023-04-30T12:20:24;100074.88;;;19.78;39.64
16777;BME280;8505;49.456;8.164;2023-04-30T12:22:52;100075.84;;;20.02;38.87
16777;BME280;8505;49.456;8.164;2023-04-30T12:25:21;100068.25;;;20.36;38.47
16777;BME280;8505;49.456;8.164;2023-04-30T12:27:51;100069.97;;;20.60;37.59
16777;BME280;8505;49.456;8.164;2023-04-30T12:30:21;100065.38;;;21.44;36.35
16777;BME280;8505;49.456;8.164;2023-04-30T12:32:51;100051.94;;;21.02;35.67
16777;BME280;8505;49.456;8.164;2023-04-30T12:35:20;100061.78;;;20.55;37.01
16777;BME280;8505;49.456;8.164;2023-04-30T12:37:49;100054.88;;;21.00;37.00
16777;BME280;8505;49.456;8.164;2023-04-30T12:40:19;100047.28;;;21.09;36.11
16777;BME280;8505;49.456;8.164;2023-04-30T12:42:47;100052.16;;;20.89;36.20
16777;BME280;8505;49.456;8.164;2023-04-30T12:45:44;100053.72;;;20.18;37.20
16777;BME280;8505;49.456;8.164;2023-04-30T12:48:13;100051.31;;;20.88;35.71
16777;BME280;8505;49.456;8.164;2023-04-30T12:50:45;100032.69;;;21.28;35.66
16777;BME280;8505;49.456;8.164;2023-04-30T12:53:13;100047.19;;;20.74;36.07
16777;BME280;8505;49.456;8.164;2023-04-30T12:55:41;100036.88;;;20.71;35.52
16777;BME280;8505;49.456;8.164;2023-04-30T12:58:10;100030.22;;;21.50;35.27
16777;BME280;8505;49.456;8.164;2023-04-30T13:00:46;100026.00;;;21.31;36.35
16777;BME280;8505;49.456;8.164;2023-04-30T13:03:15;100024.94;;;20.67;36.10
16777;BME280;8505;49.456;8.164;2023-04-30T13:05:49;100023.84;;;20.98;35.81
16777;BME280;8505;49.456;8.164;2023-04-30T13:08:18;100024.41;;;21.00;36.20
16777;BME280;8505;49.456;8.164;2023-04-30T13:10:47;100015.69;;;21.28;35.43